x

North Nomad (46184) Wave Buoy

11:00am - Sun 1st Mar 2015 All times are AKST. -9 hours from GMT.

  • Sig Wave height 4.6ft
  • Peak Period 12s
  • Wind
    18mph, 20mph gusts
  • Sea Temp 44°f
  • Air Temp 45°f
  • Sea Pressure 1030.5mb
  • North Nomad
  • North Nomad

More Historic Weather Station data

Upgrade to MSW Pro to gain access to the past 30 days of data for over 8000 Wavebouys and Weather Stations around the globe.

Join Pro

Comparision Forecast

View Surf forecast
   
Sun 03/01 11:00am 4.5ft 12s 18 20 mph 1030.5mb 44f 45f
10:00am 5ft 6s 18 20 mph 1030.2mb 44f 45f
9:00am 5ft 6s 20 22 mph 1029.7mb 44f 45f
8:00am 5ft 5s 20 25 mph 1029.2mb 44f 45f
7:00am 5ft 6s 22 27 mph 1028.6mb 44f 45f
6:00am 5ft 5s 20 25 mph 1028.5mb 44f 46f
5:00am 4.5ft 5s 20 22 mph 1028.2mb 44f 45f
4:00am 4.5ft 5s 18 22 mph 1028.7mb 44f 45f
3:00am 4.5ft  -  18 22 mph 1028.7mb 44f 45f
2:00am 4ft 5s 20 22 mph 1029.3mb 44f 45f
1:00am 3.5ft 4s 18 22 mph 1029.5mb 44f 45f
12:00am 3.5ft 13s 13 18 mph 1029.5mb 44f 45f
Sat 02/28 11:00pm 3.5ft 14s 13 18 mph 1029.7mb 44f 46f
10:00pm 3.5ft 9s 16 18 mph 1029.9mb 44f 46f
9:00pm 3.5ft 10s 13 16 mph 1030.3mb 44f 45f
8:00pm 3.5ft  -  13 18 mph 1030.2mb 44f 45f
7:00pm 3.5ft  -  11 13 mph 1030.3mb 44f 45f
6:00pm 3ft 13s 16 18 mph 1030.8mb 44f 45f
5:00pm 3ft 9s 13 16 mph 1030.8mb 44f 45f
4:00pm 3.5ft 9s 13 16 mph 1031.1mb 44f 45f
3:00pm 3ft 10s 11 13 mph 1031.3mb 44f 45f
1:00pm 3ft 8s 11 13 mph 1032.3mb 44f 44f
12:00pm 3.5ft 9s 11 13 mph 1032.1mb 44f 44f
11:00am 3.5ft 9s 11 16 mph 1032.4mb 44f 43f
10:00am 3.5ft 10s 13 16 mph 1032.3mb 44f 42f
9:00am 3.5ft 10s 11 13 mph 1032.2mb 44f 42f
8:00am 3.5ft 10s 9 13 mph 1031.9mb 44f 41f
7:00am 3.5ft 10s 9 11 mph 1031.7mb 44f 41f
6:00am 3.5ft 5s 9 13 mph 1032mb 44f 41f
5:00am 3.5ft 10s 9 13 mph 1032.3mb 44f 40f
4:00am 3.5ft 10s 9 13 mph 1032.4mb 44f 40f
3:00am 3.5ft 10s 9 16 mph 1032.5mb 44f 41f
2:00am 3.5ft 10s 11 16 mph 1032.7mb 44f 41f
1:00am 3.5ft 10s 11 16 mph 1032.6mb 44f 41f
12:00am 3.5ft 10s 9 13 mph 1032.5mb 44f 41f
Fri 02/27 11:00pm 3.5ft 10s 11 18 mph 1032.5mb 44f 41f
10:00pm 4ft 10s 11 13 mph 1032.4mb 44f 41f
9:00pm 4.5ft 10s 11 13 mph 1032.4mb 44f 41f
8:00pm 4.5ft 10s 9 13 mph 1032.2mb 44f 42f
7:00pm 4.5ft 10s 11 16 mph 1032.4mb 44f 42f
6:00pm 5ft 6s 11 13 mph 1032.1mb 44f 42f
5:00pm 5ft 6s 13 16 mph 1032mb 45f 42f
4:00pm 5ft 7s 13 16 mph 1032.3mb 45f 42f
3:00pm 5ft 7s 13 18 mph 1032.1mb 45f 43f
2:00pm 5ft 7s 16 20 mph 1032.4mb 45f 43f
1:00pm 5ft 7s 16 18 mph 1032.7mb 45f 43f
12:00pm 5.5ft 7s 13 18 mph 1032.6mb 44f 44f
11:00am 5.5ft 7s 13 18 mph 1032.4mb 44f 44f
10:00am 6ft 7s 16 18 mph 1032mb 44f 44f
9:00am 6ft 7s 16 20 mph 1031.6mb 44f 44f
8:00am 6.5ft 7s 18 22 mph 1031.2mb 44f 43f
7:00am 7ft 7s 18 22 mph 1030.9mb 45f 43f
6:00am 7.5ft 7s 20 25 mph 1030.7mb 45f 43f
5:00am 8ft 7s 20 25 mph 1030.5mb 45f 43f
4:00am 8ft 7s 20 25 mph 1030.3mb 45f 44f
3:00am 8.5ft 7s 20 25 mph 1030.4mb 45f 44f
2:00am 8.5ft 8s 20 27 mph 1030.4mb 45f 44f
1:00am 9ft 8s 22 25 mph 1030.2mb 45f 44f
12:00am 9ft 8s 22 27 mph 1029.8mb 45f 44f
Thu 02/26 11:00pm 9ft 8s 22 27 mph 1029.6mb 45f 44f
10:00pm 9ft 7s 25 29 mph 1029.1mb 45f 44f
9:00pm 9ft 8s 25 29 mph 1028.6mb 45f 45f
8:00pm 9.5ft 8s 25 29 mph 1028.1mb 45f 45f
5:00pm 9ft 10s 25 31 mph 1027.1mb 45f 46f
4:00pm 8ft 6s 27 34 mph 1026.5mb 45f 47f
3:00pm 8ft 7s 22 29 mph 1026.6mb 45f 47f
2:00pm 8.5ft 10s 25 29 mph 1026.3mb 45f 47f
1:00pm 8ft 11s 22 27 mph 1026mb 45f 47f
12:00pm 8ft 11s 20 25 mph 1025.6mb 45f 47f
11:00am 7.5ft 10s 20 25 mph 1025.1mb 45f 46f
10:00am 8.5ft 11s 20 27 mph 1024.3mb 45f 45f
9:00am 8ft 10s 20 29 mph 1022.9mb 45f 45f
8:00am 8ft 11s 22 27 mph 1021.5mb 45f 45f
7:00am 7.5ft 11s 13 18 mph 1020.7mb 45f 45f
6:00am 8ft 11s 13 18 mph 1020mb 45f 45f
5:00am 8ft 10s 11 16 mph 1019.1mb 45f 44f
4:00am 7.5ft 11s 11 13 mph 1018.6mb 45f 44f
3:00am 7.5ft 11s 11 13 mph 1018.3mb 45f 44f
2:00am 7ft 11s 11 16 mph 1018.2mb 45f 44f
1:00am 7.5ft 10s 9 11 mph 1017.7mb 45f 44f
12:00am 8ft 10s 11 13 mph 1017.3mb 45f 45f
Wed 02/25 11:00pm 7ft 11s 9 11 mph 1017mb 45f 45f
10:00pm 8ft 11s 9 13 mph 1016.8mb 45f 45f